Time;durP1;ratioP1;P1;durP2;ratioP2;P2;SDS_P1;SDS_P2;PMS_P1;PMS_P2;Temp;Humidity;BMP_temperature;BMP_pressure;BME280_temperature;BME280_humidity;BME280_pressure;Samples;Min_cycle;Max_cycle;Signal;HPM_P1;HPM_P2
2021/01/28 00:01:53;;;;;;;78.68;28.58;;;6.70;99.90;;;;;;6247283;22;20054;-92
2021/01/28 00:04:26;;;;;;;77.07;29.83;;;6.80;99.90;;;;;;6247553;22;20007;-93
2021/01/28 00:06:56;;;;;;;76.93;27.42;;;6.70;99.90;;;;;;6247334;22;20008;-93
2021/01/28 00:09:32;;;;;;;76.30;28.20;;;6.70;99.90;;;;;;6248454;22;20478;-93
2021/01/28 00:12:02;;;;;;;78.53;29.17;;;6.80;99.90;;;;;;6223506;22;20090;-94
2021/01/28 00:14:38;;;;;;;78.47;29.52;;;6.70;99.90;;;;;;6246975;22;20011;-94
2021/01/28 00:17:14;;;;;;;74.90;27.63;;;6.70;99.90;;;;;;6248438;22;20014;-93
2021/01/28 00:19:46;;;;;;;70.28;25.55;;;6.70;99.90;;;;;;6274128;22;20004;-93
2021/01/28 00:22:18;;;;;;;58.60;24.13;;;6.70;99.90;;;;;;6224820;22;20015;-93
2021/01/28 00:25:22;;;;;;;;;;;;;;;;;;;;;
2021/01/28 00:28:30;;;;;;;77.45;28.95;;;6.70;99.90;;;;;;6243277;22;20090;-93
2021/01/28 00:31:04;;;;;;;68.13;26.67;;;6.70;99.90;;;;;;6272152;22;20008;-93
2021/01/28 00:33:36;;;;;;;68.28;25.42;;;6.70;99.90;;;;;;6280386;22;20079;-94
2021/01/28 00:36:40;;;;;;;75.00;25.52;;;6.70;99.90;;;;;;6279286;22;20324;-92
2021/01/28 00:39:17;;;;;;;74.97;24.48;;;6.80;99.90;;;;;;6216479;22;20026;-92
2021/01/28 00:42:18;;;;;;;72.90;24.30;;;6.80;99.90;;;;;;6223331;22;20507;-93
2021/01/28 00:44:59;;;;;;;79.95;26.60;;;6.80;99.90;;;;;;6242829;22;20042;-93
2021/01/28 00:47:41;;;;;;;56.45;20.95;;;6.70;99.90;;;;;;6274921;22;20004;-93
2021/01/28 00:50:28;;;;;;;77.55;23.90;;;6.70;99.90;;;;;;6253894;22;20290;-92
2021/01/28 00:53:04;;;;;;;77.15;24.70;;;6.80;99.90;;;;;;6252393;22;20004;-92
2021/01/28 00:55:54;;;;;;;62.60;22.10;;;6.70;99.90;;;;;;6229021;22;20023;-91
2021/01/28 00:58:54;;;;;;;70.35;23.63;;;6.80;99.90;;;;;;6249356;22;20011;-95
2021/01/28 01:01:46;;;;;;;60.47;21.00;;;6.80;99.90;;;;;;6250515;22;20016;-92
2021/01/28 01:04:21;;;;;;;62.67;20.60;;;6.80;99.90;;;;;;6252001;22;20047;-93
2021/01/28 01:06:56;;;;;;;62.88;21.27;;;6.80;99.90;;;;;;6251691;22;20007;-92
2021/01/28 01:09:31;;;;;;;61.75;19.98;;;6.80;99.90;;;;;;6279018;22;20000;-92
2021/01/28 01:12:21;;;;;;;66.97;21.85;;;6.70;99.90;;;;;;6250921;22;20004;-93
2021/01/28 01:15:07;;;;;;;60.75;22.52;;;6.80;99.90;;;;;;6233598;22;20479;-91
2021/01/28 01:17:39;;;;;;;62.40;22.35;;;6.70;99.90;;;;;;6235318;22;20015;-92
2021/01/28 01:20:11;;;;;;;66.43;22.38;;;6.80;99.90;;;;;;6250914;22;20011;-91
2021/01/28 01:25:52;;;;;;;68.82;22.75;;;6.80;99.90;;;;;;6258254;22;20420;-90
2021/01/28 01:28:29;;;;;;;63.42;21.63;;;6.80;99.90;;;;;;6241295;22;20014;-90
2021/01/28 01:30:58;;;;;;;65.13;23.55;;;6.70;99.90;;;;;;6248143;22;20015;-91
2021/01/28 01:33:29;;;;;;;48.35;18.48;;;6.70;99.90;;;;;;6251465;22;20011;-91
2021/01/28 01:36:10;;;;;;;65.22;20.58;;;6.80;99.90;;;;;;6251230;22;20065;-90
2021/01/28 01:38:48;;;;;;;66.55;21.98;;;6.80;99.90;;;;;;6278688;22;20034;-91
2021/01/28 01:41:21;;;;;;;63.78;20.73;;;6.80;99.90;;;;;;6278648;22;20007;-90
2021/01/28 01:44:32;;;;;;;65.40;22.40;;;6.80;99.90;;;;;;6278508;22;20000;-91
2021/01/28 01:47:39;;;;;;;;;;;;;;;;;;;;;
2021/01/28 01:50:44;;;;;;;62.97;20.30;;;6.70;99.90;;;;;;6278531;22;20091;-90
2021/01/28 01:53:22;;;;;;;;;;;;;;;;;;;;;
2021/01/28 01:56:10;;;;;;;66.97;21.10;;;6.70;99.90;;;;;;6272736;22;19946;-89
2021/01/28 01:59:08;;;;;;;71.80;20.40;;;6.80;99.90;;;;;;6241078;22;20050;-91
2021/01/28 02:02:09;;;;;;;69.90;19.65;;;6.80;99.90;;;;;;6232078;23;20031;-90
2021/01/28 02:05:06;;;;;;;70.68;21.25;;;6.80;99.90;;;;;;6213877;23;20016;-91
2021/01/28 02:08:11;;;;;;;;;;;;;;;;;;;;;
2021/01/28 02:10:55;;;;;;;83.22;24.13;;;6.80;99.90;;;;;;6243165;23;20075;-91
2021/01/28 02:13:31;;;;;;;79.10;22.23;;;6.80;99.90;;;;;;6222473;23;20008;-90
2021/01/28 02:16:23;;;;;;;84.85;23.23;;;6.80;99.90;;;;;;6248254;23;20004;-92
2021/01/28 02:18:57;;;;;;;93.70;24.45;;;6.80;99.90;;;;;;6200792;23;20046;-91
2021/01/28 02:21:33;;;;;;;103.15;23.50;;;6.80;99.90;;;;;;6222506;23;20417;-91
2021/01/28 02:24:21;;;;;;;100.50;26.95;;;6.80;99.90;;;;;;6223449;23;20000;-92
2021/01/28 02:27:22;;;;;;;97.63;26.05;;;6.80;99.90;;;;;;6222871;23;20382;-91
2021/01/28 02:30:13;;;;;;;102.45;24.85;;;6.80;99.90;;;;;;6223141;23;20028;-91
2021/01/28 02:32:52;;;;;;;111.63;25.40;;;6.80;99.90;;;;;;6222987;23;20012;-92
2021/01/28 02:35:37;;;;;;;115.15;26.40;;;6.80;99.90;;;;;;6222856;23;20083;-91
2021/01/28 02:38:21;;;;;;;;;;;;;;;;;;;;;
2021/01/28 02:40:54;;;;;;;132.20;25.75;;;6.80;99.90;;;;;;6225532;23;20075;-92
2021/01/28 02:43:48;;;;;;;114.70;25.15;;;6.80;99.90;;;;;;6250020;23;20309;-91
2021/01/28 02:46:20;;;;;;;96.70;24.00;;;6.80;99.90;;;;;;6222359;23;20034;-92
2021/01/28 02:48:52;;;;;;;99.78;22.75;;;6.80;99.90;;;;;;6223179;23;20517;-91
2021/01/28 02:51:42;;;;;;;124.70;24.88;;;6.80;99.90;;;;;;6223192;23;20372;-92
2021/01/28 02:54:24;;;;;;;;;;;;;;;;;;;;;
2021/01/28 02:56:53;;;;;;;96.93;24.67;;;6.80;99.90;;;;;;6249436;23;20075;-91
2021/01/28 02:59:47;;;;;;;143.55;26.40;;;6.80;99.90;;;;;;6227211;23;20028;-92
2021/01/28 03:02:23;;;;;;;143.23;27.27;;;6.80;99.90;;;;;;6223822;22;20031;-90
2021/01/28 03:04:50;;;;;;;122.65;26.98;;;6.80;99.90;;;;;;6253300;22;20034;-91
2021/01/28 03:07:21;;;;;;;133.15;28.42;;;6.90;99.90;;;;;;6277771;22;20050;-91
2021/01/28 03:09:53;;;;;;;145.48;29.77;;;6.80;99.90;;;;;;6252735;22;20436;-91
2021/01/28 03:12:35;;;;;;;136.75;32.30;;;6.80;99.90;;;;;;6228696;22;20015;-91
2021/01/28 03:15:39;;;;;;;124.00;28.10;;;6.80;99.90;;;;;;6259040;22;20012;-91
2021/01/28 03:18:14;;;;;;;150.02;29.35;;;6.80;99.90;;;;;;6279960;22;20008;-91
2021/01/28 03:21:02;;;;;;;116.28;27.92;;;6.80;99.90;;;;;;6279156;22;20019;-92
2021/01/28 03:23:51;;;;;;;117.63;26.63;;;6.80;99.90;;;;;;6278707;22;20007;-92
2021/01/28 03:26:23;;;;;;;102.32;26.85;;;6.80;99.90;;;;;;6253392;22;20015;-91
2021/01/28 03:28:59;;;;;;;114.30;24.00;;;6.80;99.90;;;;;;6253045;22;20000;-93
2021/01/28 03:31:38;;;;;;;111.35;25.40;;;6.80;99.90;;;;;;6230187;22;20332;-92
2021/01/28 03:34:18;;;;;;;;;;;;;;;;;;;;;
2021/01/28 03:36:56;;;;;;;113.43;24.60;;;6.80;99.90;;;;;;6280206;22;20072;-92
2021/01/28 03:39:27;;;;;;;130.82;23.38;;;6.80;99.90;;;;;;6253126;22;20007;-92
2021/01/28 03:42:02;;;;;;;97.22;22.27;;;6.80;99.90;;;;;;6228247;22;20004;-92
2021/01/28 03:44:37;;;;;;;139.43;25.85;;;6.80;99.90;;;;;;6255844;22;20373;-91
2021/01/28 03:47:06;;;;;;;120.13;27.30;;;6.80;99.90;;;;;;6234402;22;20008;-93
2021/01/28 03:49:38;;;;;;;141.68;32.80;;;6.80;99.90;;;;;;6228175;22;20008;-92
2021/01/28 03:52:14;;;;;;;115.13;29.50;;;6.80;99.90;;;;;;6279568;22;20010;-92
2021/01/28 03:55:01;;;;;;;120.82;27.90;;;6.80;99.90;;;;;;6252958;22;20061;-92
2021/01/28 03:57:42;;;;;;;;;;;;;;;;;;;;;
2021/01/28 04:00:37;;;;;;;103.43;24.88;;;6.80;99.90;;;;;;6270886;22;20086;-93
2021/01/28 04:03:13;;;;;;;169.23;26.55;;;6.80;99.90;;;;;;6252789;22;20020;-91
2021/01/28 04:06:01;;;;;;;139.95;25.80;;;6.80;99.90;;;;;;6257187;22;20043;-93
2021/01/28 04:08:31;;;;;;;133.23;24.13;;;6.80;99.90;;;;;;6243396;22;20010;-92
2021/01/28 04:11:09;;;;;;;150.77;25.38;;;6.80;99.90;;;;;;6228016;22;20432;-92
2021/01/28 04:13:45;;;;;;;132.63;25.00;;;6.80;99.90;;;;;;6227681;22;20448;-93
2021/01/28 04:16:12;;;;;;;106.32;22.70;;;6.80;99.90;;;;;;6252163;22;20004;-92
2021/01/28 04:18:45;;;;;;;135.45;23.92;;;6.80;99.90;;;;;;6226329;22;20023;-92
2021/01/28 04:21:11;;;;;;;98.57;22.20;;;6.80;99.90;;;;;;6227659;22;20309;-91
2021/01/28 04:23:36;;;;;;;78.68;22.58;;;6.70;99.90;;;;;;6251649;22;20018;-91
2021/01/28 04:26:13;;;;;;;90.72;22.52;;;6.70;99.90;;;;;;6277628;22;20002;-91
2021/01/28 04:28:50;;;;;;;113.07;21.08;;;6.60;99.90;;;;;;6279479;22;20003;-92
2021/01/28 04:31:22;;;;;;;118.75;21.42;;;6.60;99.90;;;;;;6227777;22;20015;-92
2021/01/28 04:33:56;;;;;;;132.90;21.90;;;6.60;99.90;;;;;;6278595;22;20006;-92
2021/01/28 04:36:48;;;;;;;88.55;16.83;;;6.60;99.90;;;;;;6277833;22;20007;-91
2021/01/28 04:39:17;;;;;;;121.63;21.98;;;6.60;99.90;;;;;;6251589;22;20099;-92
2021/01/28 04:42:04;;;;;;;;;;;;;;;;;;;;;
2021/01/28 04:44:40;;;;;;;81.35;17.50;;;6.60;99.90;;;;;;6272272;22;20038;-93
2021/01/28 04:47:26;;;;;;;96.93;17.48;;;6.60;99.90;;;;;;6273044;22;20007;-92
2021/01/28 04:50:09;;;;;;;;;;;;;;;;;;;;;
2021/01/28 04:52:43;;;;;;;;;;;6.60;99.90;;;;;;6250634;22;20090;-94
2021/01/28 04:55:34;;;;;;;;;;;;;;;;;;;;;
2021/01/28 04:58:07;;;;;;;77.32;14.20;;;6.60;99.90;;;;;;6276727;22;20088;-93
2021/01/28 05:00:36;;;;;;;115.78;22.10;;;6.60;99.90;;;;;;6250859;22;20007;-91
2021/01/28 05:03:36;;;;;;;101.88;26.23;;;6.60;99.90;;;;;;6251907;22;20420;-92
2021/01/28 05:06:10;;;;;;;129.95;27.48;;;6.60;99.90;;;;;;6241726;22;20008;-93
2021/01/28 05:08:45;;;;;;;137.90;29.23;;;6.60;99.90;;;;;;6203932;22;20008;-92
2021/01/28 05:11:30;;;;;;;112.43;25.85;;;6.60;99.90;;;;;;6277668;22;20416;-92
2021/01/28 05:14:20;;;;;;;111.32;23.88;;;6.60;99.90;;;;;;6251148;22;20011;-92
2021/01/28 05:16:52;;;;;;;90.35;24.73;;;6.60;99.90;;;;;;6252129;22;20412;-91
2021/01/28 05:19:51;;;;;;;80.07;21.55;;;6.60;99.90;;;;;;6242803;22;20008;-91
2021/01/28 05:22:36;;;;;;;80.85;19.85;;;6.60;99.90;;;;;;6240518;22;20445;-91
2021/01/28 05:25:40;;;;;;;84.88;21.33;;;6.60;99.90;;;;;;6253279;22;20008;-92
2021/01/28 05:28:23;;;;;;;;;;;6.50;99.90;;;;;;6160403;23;20001;-92
2021/01/28 05:30:55;;;;;;;67.88;15.93;;;6.50;99.90;;;;;;6244998;22;20369;-92
2021/01/28 05:33:41;;;;;;;64.05;17.58;;;6.40;99.90;;;;;;6251611;22;20011;-91
2021/01/28 05:36:12;;;;;;;76.82;16.52;;;6.40;99.90;;;;;;6227070;22;20018;-91
2021/01/28 05:38:52;;;;;;;73.82;16.10;;;6.40;99.90;;;;;;6278808;22;20054;-91
2021/01/28 05:41:36;;;;;;;79.25;16.10;;;6.40;99.90;;;;;;6278245;22;20302;-91
2021/01/28 05:44:31;;;;;;;56.70;15.82;;;6.40;99.90;;;;;;6249418;22;20429;-91
2021/01/28 05:47:33;;;;;;;;;;;;;;;;;;;;;
2021/01/28 05:50:20;;;;;;;61.25;16.42;;;6.30;99.90;;;;;;6280590;22;20074;-91
2021/01/28 05:52:50;;;;;;;54.50;15.45;;;6.40;99.90;;;;;;6280760;22;19996;-92
2021/01/28 05:55:23;;;;;;;46.22;14.13;;;6.30;99.90;;;;;;6253385;22;20428;-92
2021/01/28 05:58:12;;;;;;;36.80;13.77;;;6.30;99.90;;;;;;6253595;22;20058;-91
2021/01/28 06:01:13;;;;;;;36.17;11.15;;;6.30;99.90;;;;;;6251593;22;19996;-91
2021/01/28 06:04:14;;;;;;;30.70;11.45;;;6.20;99.90;;;;;;6252501;22;20091;-92
2021/01/28 06:06:55;;;;;;;25.77;10.52;;;6.20;99.90;;;;;;6251708;22;20011;-92
2021/01/28 06:09:42;;;;;;;26.40;9.57;;;6.20;99.90;;;;;;6252203;22;20022;-92
2021/01/28 06:12:15;;;;;;;24.98;9.02;;;6.20;99.90;;;;;;6253075;22;20004;-92
2021/01/28 06:14:56;;;;;;;22.27;8.07;;;6.10;99.90;;;;;;6278793;22;20084;-91
2021/01/28 06:17:39;;;;;;;24.10;9.15;;;6.10;99.90;;;;;;6260680;22;20333;-92
2021/01/28 06:20:27;;;;;;;19.67;7.10;;;6.00;99.90;;;;;;6262735;22;20004;-91
2021/01/28 06:23:03;;;;;;;17.05;7.22;;;6.00;99.90;;;;;;6285925;22;20401;-92
2021/01/28 06:25:59;;;;;;;18.10;6.90;;;6.00;99.90;;;;;;6253734;22;20030;-92
2021/01/28 06:29:05;;;;;;;15.70;6.15;;;5.90;99.90;;;;;;6253847;22;20016;-91
2021/01/28 06:31:53;;;;;;;16.98;5.93;;;5.90;99.90;;;;;;6247966;22;20313;-91
2021/01/28 06:34:55;;;;;;;18.60;6.10;;;5.90;99.90;;;;;;6281138;22;20012;-92
2021/01/28 06:38:00;;;;;;;14.70;6.47;;;5.80;99.90;;;;;;6254131;22;20332;-91
2021/01/28 06:40:59;;;;;;;14.27;6.43;;;5.80;99.90;;;;;;6252764;22;20008;-91
2021/01/28 06:44:23;;;;;;;15.10;5.82;;;5.80;99.90;;;;;;6280713;22;19999;-93
2021/01/28 06:47:31;;;;;;;16.25;6.38;;;5.80;99.90;;;;;;6157824;23;20009;-94
2021/01/28 06:53:45;;;;;;;;;;;;;;;;;;;;;
2021/01/28 06:56:43;;;;;;;17.70;6.30;;;5.80;99.90;;;;;;6164434;23;20032;-94
2021/01/28 06:59:56;;;;;;;12.38;5.45;;;5.80;99.90;;;;;;6133440;23;20402;-94
2021/01/28 07:03:00;;;;;;;15.50;5.65;;;5.80;99.90;;;;;;6117723;23;20039;-93
2021/01/28 07:06:31;;;;;;;16.10;5.97;;;5.80;99.90;;;;;;6127848;23;20014;-93
2021/01/28 07:09:42;;;;;;;18.48;7.03;;;5.70;99.90;;;;;;6069526;23;20428;-93
2021/01/28 07:12:18;;;;;;;20.95;7.63;;;5.70;99.90;;;;;;6069715;23;20007;-93
2021/01/28 07:14:51;;;;;;;16.27;6.30;;;5.70;99.90;;;;;;6045726;23;20015;-94
2021/01/28 07:17:26;;;;;;;17.90;6.88;;;5.70;99.90;;;;;;6113771;23;20047;-93
2021/01/28 07:20:28;;;;;;;16.58;6.25;;;5.80;99.90;;;;;;6103280;23;20006;-94
2021/01/28 07:23:17;;;;;;;16.00;6.85;;;5.80;99.90;;;;;;6102558;23;20009;-95
2021/01/28 07:26:33;;;;;;;15.20;5.57;;;5.70;99.90;;;;;;6127399;23;20010;-95
2021/01/28 07:29:28;;;;;;;13.82;6.75;;;5.70;99.90;;;;;;6205035;22;20102;-93
2021/01/28 07:32:23;;;;;;;16.23;6.63;;;5.70;99.90;;;;;;6222647;23;20058;-93
2021/01/28 07:39:25;;;;;;;13.52;6.22;;;5.70;99.90;;;;;;6237182;23;20062;-94
2021/01/28 07:42:16;;;;;;;18.02;6.57;;;5.70;99.90;;;;;;6098335;23;20042;-93
2021/01/28 07:44:48;;;;;;;17.58;7.68;;;5.70;99.90;;;;;;6052750;23;20109;-93
2021/01/28 07:47:43;;;;;;;18.80;6.63;;;5.70;99.90;;;;;;6051051;23;20019;-94
2021/01/28 07:50:29;;;;;;;14.40;6.75;;;5.70;99.90;;;;;;6073492;23;20022;-92
2021/01/28 07:52:57;;;;;;;15.00;6.10;;;5.70;99.90;;;;;;6074945;23;20415;-94
2021/01/28 07:55:47;;;;;;;18.23;6.53;;;5.60;99.90;;;;;;6051440;23;20078;-93
2021/01/28 07:58:41;;;;;;;15.38;6.28;;;5.70;99.90;;;;;;6098556;23;20019;-93
2021/01/28 08:01:25;;;;;;;17.95;7.88;;;5.70;99.90;;;;;;6051700;23;20384;-93
2021/01/28 08:04:28;;;;;;;16.02;6.53;;;5.70;99.90;;;;;;6223429;23;20020;-94
2021/01/28 08:07:09;;;;;;;14.30;6.85;;;5.70;99.90;;;;;;6224561;23;20004;-95
2021/01/28 08:10:17;;;;;;;15.82;6.20;;;5.70;99.90;;;;;;6200120;23;20043;-93
2021/01/28 08:13:03;;;;;;;13.18;5.57;;;5.70;99.90;;;;;;6229920;23;20027;-94
2021/01/28 08:16:24;;;;;;;18.20;6.13;;;5.70;99.90;;;;;;6225990;23;20008;-95
2021/01/28 08:19:20;;;;;;;12.70;5.53;;;5.70;99.90;;;;;;6226168;22;20020;-92
2021/01/28 08:22:34;;;;;;;13.18;6.00;;;5.70;99.90;;;;;;6202908;23;20016;-94
2021/01/28 08:25:15;;;;;;;11.82;5.53;;;5.60;99.90;;;;;;6230438;23;20417;-94
2021/01/28 08:28:12;;;;;;;12.18;5.40;;;5.60;99.90;;;;;;6237238;23;19997;-92
2021/01/28 08:31:20;;;;;;;15.60;6.28;;;5.70;99.90;;;;;;6227078;23;20412;-93
2021/01/28 08:34:35;;;;;;;11.02;5.60;;;5.60;99.90;;;;;;6252036;23;20016;-94
2021/01/28 08:37:35;;;;;;;12.05;6.05;;;5.60;99.90;;;;;;6203132;23;20012;-93
2021/01/28 08:40:22;;;;;;;14.27;5.63;;;5.60;99.90;;;;;;6228612;23;20000;-94
2021/01/28 08:43:18;;;;;;;11.68;5.20;;;5.60;99.90;;;;;;6255033;23;20004;-93
2021/01/28 08:45:49;;;;;;;14.35;5.78;;;5.70;99.90;;;;;;6224509;23;20008;-91
2021/01/28 08:48:24;;;;;;;;;;;5.60;99.90;;;;;;6254373;23;20024;-92
2021/01/28 08:51:18;;;;;;;13.30;7.20;;;5.60;99.90;;;;;;6226379;23;19900;-91
2021/01/28 08:54:30;;;;;;;14.20;6.63;;;5.60;99.90;;;;;;6203380;23;20333;-91
2021/01/28 08:57:00;;;;;;;12.15;6.43;;;5.60;99.90;;;;;;6250813;23;20016;-92
2021/01/28 09:00:00;;;;;;;14.60;7.40;;;5.60;99.90;;;;;;6251442;22;20012;-92
2021/01/28 09:02:48;;;;;;;12.55;7.05;;;5.60;99.90;;;;;;6225622;23;20031;-93
2021/01/28 09:05:35;;;;;;;14.10;6.78;;;5.60;99.90;;;;;;6226623;23;20004;-92
2021/01/28 09:08:39;;;;;;;15.98;6.65;;;5.60;99.90;;;;;;6226580;23;20004;-94
2021/01/28 09:11:30;;;;;;;13.68;5.95;;;5.60;99.90;;;;;;6200850;23;20035;-93
2021/01/28 09:14:34;;;;;;;13.30;6.32;;;5.70;99.90;;;;;;6253371;23;20004;-93
2021/01/28 09:17:49;;;;;;;11.30;6.13;;;5.60;99.90;;;;;;6140701;23;20450;-93
2021/01/28 09:20:34;;;;;;;16.58;8.30;;;5.70;99.90;;;;;;6132814;23;20517;-94
2021/01/28 09:23:36;;;;;;;14.13;7.00;;;5.60;99.90;;;;;;6160038;23;20010;-93
2021/01/28 09:26:35;;;;;;;12.95;5.95;;;5.60;99.90;;;;;;6135033;23;20088;-94
2021/01/28 09:29:46;;;;;;;11.77;6.20;;;5.70;99.90;;;;;;6134211;23;20009;-91
2021/01/28 09:33:04;;;;;;;14.07;7.10;;;5.70;99.90;;;;;;6132571;23;20477;-92
2021/01/28 09:36:04;;;;;;;12.75;6.57;;;5.70;99.90;;;;;;6159978;23;20010;-92
2021/01/28 09:38:39;;;;;;;13.30;6.57;;;5.70;99.90;;;;;;6160216;23;20013;-91
2021/01/28 09:41:28;;;;;;;11.43;6.43;;;5.70;99.90;;;;;;6110881;23;20088;-92
2021/01/28 09:44:01;;;;;;;14.63;6.72;;;5.80;99.90;;;;;;6135050;23;20013;-90
2021/01/28 09:46:31;;;;;;;12.70;6.88;;;5.80;99.90;;;;;;6131773;23;20009;-92
2021/01/28 09:49:02;;;;;;;13.95;7.45;;;5.80;99.90;;;;;;6133984;23;20015;-92
2021/01/28 09:52:05;;;;;;;14.57;7.38;;;5.80;99.90;;;;;;6138611;23;20053;-91
2021/01/28 09:55:18;;;;;;;12.82;7.13;;;5.80;99.90;;;;;;6252078;23;20123;-93
2021/01/28 09:57:51;;;;;;;13.25;6.95;;;5.80;99.90;;;;;;6227296;23;20015;-93
2021/01/28 10:00:22;;;;;;;12.30;6.97;;;5.80;99.90;;;;;;6218354;23;20086;-92
2021/01/28 10:03:18;;;;;;;11.90;7.05;;;5.80;99.90;;;;;;6220491;23;20024;-93
2021/01/28 10:05:54;;;;;;;14.13;7.38;;;5.80;99.90;;;;;;6098574;23;20033;-93
2021/01/28 10:08:25;;;;;;;13.57;7.18;;;5.80;99.90;;;;;;6099072;23;20584;-92
2021/01/28 10:10:56;;;;;;;14.02;7.32;;;5.90;99.90;;;;;;6208400;23;20013;-92
2021/01/28 10:13:22;;;;;;;12.68;7.68;;;5.90;99.90;;;;;;6168287;23;20016;-91
2021/01/28 10:16:18;;;;;;;13.75;8.57;;;5.90;99.90;;;;;;6220288;23;20008;-92
2021/01/28 10:19:02;;;;;;;14.38;8.68;;;5.90;99.90;;;;;;6196995;23;20026;-93
2021/01/28 10:21:33;;;;;;;14.68;8.80;;;5.90;99.90;;;;;;6247373;23;20019;-93
2021/01/28 10:24:07;;;;;;;14.73;8.80;;;5.90;99.90;;;;;;6219126;23;20482;-92
2021/01/28 10:26:44;;;;;;;14.57;8.60;;;5.90;99.90;;;;;;6231387;23;20015;-92
2021/01/28 10:29:49;;;;;;;15.20;9.55;;;5.90;99.90;;;;;;6224894;23;20008;-92
2021/01/28 10:32:25;;;;;;;15.60;9.45;;;5.90;99.90;;;;;;6190776;23;20020;-94
2021/01/28 10:35:03;;;;;;;18.58;10.90;;;5.90;99.90;;;;;;6224887;23;20425;-95
2021/01/28 10:37:42;;;;;;;15.75;10.65;;;5.90;99.90;;;;;;6224576;23;20015;-93
2021/01/28 10:40:28;;;;;;;17.05;9.98;;;5.90;99.90;;;;;;6245789;23;20023;-94
2021/01/28 10:43:10;;;;;;;17.30;9.75;;;5.90;99.90;;;;;;6223024;23;20042;-93
2021/01/28 10:45:41;;;;;;;15.32;9.43;;;5.90;99.90;;;;;;6224559;23;20448;-92
2021/01/28 10:48:15;;;;;;;15.30;9.65;;;5.90;99.90;;;;;;6250402;23;20000;-94
2021/01/28 10:51:00;;;;;;;15.07;9.23;;;5.90;99.90;;;;;;6225267;23;20015;-92
2021/01/28 10:53:34;;;;;;;;;;;5.90;99.90;;;;;;6242570;23;20255;-93
2021/01/28 10:56:16;;;;;;;12.70;7.97;;;5.90;99.90;;;;;;6249587;23;19900;-93
2021/01/28 10:59:08;;;;;;;14.38;8.82;;;5.90;99.90;;;;;;6223100;23;20027;-94
2021/01/28 11:01:42;;;;;;;12.63;8.48;;;5.90;99.90;;;;;;6223797;23;20097;-92
2021/01/28 11:04:11;;;;;;;14.52;9.65;;;5.90;99.90;;;;;;6254300;22;20024;-95
2021/01/28 11:06:59;;;;;;;14.18;9.55;;;5.90;99.90;;;;;;6254560;22;20011;-93
2021/01/28 11:09:30;;;;;;;15.20;10.48;;;5.90;99.90;;;;;;6281670;22;20060;-93
2021/01/28 11:12:10;;;;;;;15.88;10.18;;;5.90;99.90;;;;;;6253908;22;20008;-93
2021/01/28 11:14:48;;;;;;;17.77;12.43;;;5.90;99.90;;;;;;6253632;22;20003;-93
2021/01/28 11:17:27;;;;;;;20.55;13.40;;;5.90;99.90;;;;;;6281544;22;20032;-94
2021/01/28 11:20:21;;;;;;;21.38;13.73;;;5.90;99.90;;;;;;6256097;22;20432;-93
2021/01/28 11:22:52;;;;;;;20.00;13.90;;;5.90;99.90;;;;;;6256265;22;20047;-94
2021/01/28 11:26:06;;;;;;;;;;;;;;;;;;;;;
2021/01/28 11:29:21;;;;;;;;;;;;;;;;;;;;;
2021/01/28 11:31:59;;;;;;;22.70;14.88;;;5.90;99.90;;;;;;6276671;22;20019;-94
2021/01/28 11:34:37;;;;;;;22.27;14.02;;;5.90;99.90;;;;;;6248162;22;20050;-93
2021/01/28 11:37:46;;;;;;;22.48;14.27;;;6.00;99.90;;;;;;6279005;22;20111;-93
2021/01/28 11:47:28;;;;;;;21.58;14.00;;;6.10;99.90;;;;;;6157754;23;20009;-92
2021/01/28 11:57:33;;;;;;;18.63;12.15;;;6.20;99.90;;;;;;6161368;23;20009;-95
2021/01/28 12:00:44;;;;;;;;;;;;;;;;;;;;;
2021/01/28 12:03:45;;;;;;;17.65;12.10;;;6.20;99.90;;;;;;6166215;23;20045;-96
2021/01/28 12:06:43;;;;;;;18.23;12.18;;;6.20;99.90;;;;;;6138851;23;20028;-95
2021/01/28 12:09:29;;;;;;;18.58;11.27;;;6.30;99.90;;;;;;6105272;23;20010;-96
2021/01/28 12:12:21;;;;;;;17.20;11.50;;;6.30;99.90;;;;;;6081602;23;20105;-95
2021/01/28 12:14:59;;;;;;;16.70;11.07;;;6.30;99.90;;;;;;6255674;22;20386;-95
2021/01/28 12:17:46;;;;;;;16.92;10.95;;;6.20;99.90;;;;;;6256411;22;20018;-94
2021/01/28 12:23:52;;;;;;;;;;;;;;;;;;;;;
2021/01/28 12:26:34;;;;;;;15.07;10.50;;;6.10;99.90;;;;;;6253355;22;20075;-95
2021/01/28 12:29:06;;;;;;;18.10;12.52;;;6.10;99.90;;;;;;6274970;22;20045;-94
2021/01/28 12:31:32;;;;;;;14.25;9.75;;;6.10;99.90;;;;;;6248533;22;20016;-95
2021/01/28 12:34:06;;;;;;;16.95;11.15;;;6.10;99.90;;;;;;6219454;22;20004;-93
2021/01/28 12:36:53;;;;;;;;;;;6.10;99.90;;;;;;6250688;22;20015;-95
2021/01/28 12:39:52;;;;;;;17.02;11.45;;;6.00;99.90;;;;;;6276002;22;20300;-94
2021/01/28 12:42:25;;;;;;;16.50;11.43;;;6.00;99.90;;;;;;6249968;22;20007;-93
2021/01/28 12:44:54;;;;;;;13.60;9.73;;;6.00;99.90;;;;;;6250305;22;20488;-94
2021/01/28 12:47:26;;;;;;;16.08;11.35;;;6.10;99.90;;;;;;6249164;22;20258;-93
2021/01/28 12:49:56;;;;;;;12.35;9.25;;;6.10;99.90;;;;;;6277419;22;20030;-93
2021/01/28 12:52:23;;;;;;;14.25;10.00;;;6.00;99.90;;;;;;6249696;22;20007;-96
2021/01/28 12:55:09;;;;;;;13.73;8.80;;;6.10;99.90;;;;;;6250840;22;20493;-94
2021/01/28 12:57:39;;;;;;;13.02;9.05;;;6.10;99.90;;;;;;6251450;22;20098;-94
2021/01/28 13:00:26;;;;;;;12.02;9.15;;;6.10;99.90;;;;;;6222701;22;20007;-95
2021/01/28 13:02:54;;;;;;;12.95;8.68;;;6.10;99.90;;;;;;6226351;22;20016;-95
2021/01/28 13:05:24;;;;;;;12.23;9.00;;;6.10;99.90;;;;;;6247789;22;20023;-95
2021/01/28 13:07:56;;;;;;;11.43;8.15;;;6.10;99.90;;;;;;6226368;22;20030;-95
2021/01/28 13:10:32;;;;;;;11.73;7.90;;;6.10;99.90;;;;;;6255163;22;20011;-94
2021/01/28 13:13:04;;;;;;;12.48;8.27;;;6.20;99.90;;;;;;6252888;22;20064;-94
2021/01/28 13:15:51;;;;;;;12.73;8.77;;;6.20;99.90;;;;;;6274064;22;20014;-96
2021/01/28 13:18:20;;;;;;;11.65;7.57;;;6.20;99.90;;;;;;6250593;22;20023;-95
2021/01/28 13:20:49;;;;;;;11.20;7.57;;;6.10;99.90;;;;;;6249194;22;20022;-94
2021/01/28 13:23:23;;;;;;;10.60;6.85;;;6.10;99.90;;;;;;6250337;22;20507;-96
2021/01/28 13:25:57;;;;;;;10.40;6.88;;;6.10;99.90;;;;;;6257034;22;20032;-95
2021/01/28 13:28:27;;;;;;;10.75;7.25;;;6.10;99.90;;;;;;6265141;22;20033;-95
2021/01/28 13:30:56;;;;;;;9.10;6.40;;;6.10;99.90;;;;;;6272712;22;19999;-96
2021/01/28 13:33:35;;;;;;;8.77;6.00;;;6.00;99.90;;;;;;6241347;22;20413;-95
2021/01/28 13:36:12;;;;;;;8.80;6.18;;;6.00;99.90;;;;;;6285110;22;20004;-95
2021/01/28 13:38:43;;;;;;;9.23;5.97;;;6.00;99.90;;;;;;6243756;22;20000;-92
2021/01/28 13:41:19;;;;;;;8.90;6.35;;;6.00;99.90;;;;;;6256852;22;20026;-94
2021/01/28 13:44:45;;;;;;;9.27;5.82;;;6.00;99.90;;;;;;6280390;22;20016;-95
2021/01/28 13:48:20;;;;;;;8.40;5.32;;;6.00;99.90;;;;;;6255838;22;20018;-95
2021/01/28 13:51:24;;;;;;;;;;;;;;;;;;;;;
2021/01/28 13:55:07;;;;;;;8.95;5.68;;;6.00;99.90;;;;;;6157160;23;20051;-96
2021/01/28 14:11:11;;;;;;;9.68;6.75;;;5.90;99.90;;;;;;6163356;23;20151;-96
2021/01/28 14:13:50;;;;;;;;;;;;;;;;;;;;;
2021/01/28 14:16:56;;;;;;;7.90;6.07;;;5.90;99.90;;;;;;6159672;23;20025;-96
2021/01/28 14:23:17;;;;;;;;;;;;;;;;;;;;;
2021/01/28 14:26:13;;;;;;;7.88;4.85;;;5.90;99.90;;;;;;6108802;23;20430;-95
2021/01/28 14:32:33;;;;;;;7.35;4.75;;;5.90;99.90;;;;;;6051899;23;20029;-95
2021/01/28 14:35:22;;;;;;;8.52;5.20;;;5.80;99.90;;;;;;6063067;23;20531;-95
2021/01/28 14:38:38;;;;;;;6.95;4.15;;;5.80;99.90;;;;;;6071784;23;20029;-94
2021/01/28 14:47:56;;;;;;;5.93;4.15;;;5.90;99.90;;;;;;5955269;24;20016;-95
2021/01/28 14:54:36;;;;;;;;;;;;;;;;;;;;;
2021/01/28 14:57:57;;;;;;;;;;;;;;;;;;;;;
2021/01/28 15:04:24;;;;;;;;;;;;;;;;;;;;;
2021/01/28 15:07:51;;;;;;;;;;;;;;;;;;;;;
2021/01/28 15:11:30;;;;;;;;;;;;;;;;;;;;;
2021/01/28 15:18:38;;;;;;;;;;;;;;;;;;;;;
2021/01/28 15:21:51;;;;;;;;;;;;;;;;;;;;;
2021/01/28 15:28:34;;;;;;;;;;;;;;;;;;;;;
2021/01/28 15:35:01;;;;;;;;;;;;;;;;;;;;;
2021/01/28 15:41:26;;;;;;;10.15;5.97;;;5.60;99.90;;;;;;5931563;24;20394;-94
2021/01/28 15:44:29;;;;;;;9.15;6.43;;;5.50;99.90;;;;;;5957769;24;20084;-96
2021/01/28 15:47:45;;;;;;;;;;;;;;;;;;;;;
2021/01/28 15:57:28;;;;;;;8.30;5.47;;;5.40;99.90;;;;;;6076547;23;20123;-94
2021/01/28 16:00:49;;;;;;;8.98;5.85;;;5.40;99.90;;;;;;6068762;23;20019;-94
2021/01/28 16:10:08;;;;;;;;;;;;;;;;;;;;;
2021/01/28 16:17:18;;;;;;;;;;;;;;;;;;;;;
2021/01/28 16:45:50;;;;;;;;;;;;;;;;;;;;;
2021/01/28 17:00:01;;;;;;;;;;;;;;;;;;;;;
2021/01/28 17:26:38;;;;;;;13.25;9.85;;;4.70;99.90;;;;;;6109790;23;20037;-91
2021/01/28 17:29:07;;;;;;;15.25;10.55;;;4.70;99.90;;;;;;6216850;23;20062;-90
2021/01/28 17:34:23;;;;;;;15.07;10.73;;;4.70;99.90;;;;;;6243020;22;20020;-92
2021/01/28 17:36:58;;;;;;;14.75;10.65;;;4.70;99.90;;;;;;6207885;23;20335;-91
2021/01/28 17:42:21;;;;;;;16.42;12.05;;;4.70;99.90;;;;;;6226068;23;20000;-93
2021/01/28 17:44:56;;;;;;;14.75;10.43;;;4.70;99.90;;;;;;6220159;23;20100;-91